Terminal Aerodrome Forecast
Issued by NWS Shreveport, LA

Home | Current Version | Previous Version | Text Only | Print | Product List | Glossary On
Versions: 1 2 3 4 5 6 7 8 9 10 11 12 13 14 15 16
000
FTUS44 KSHV 281700
TAFMLU
TAF
KMLU 281725Z 2818/0118 05008KT P6SM BKN100
     FM010000 05004KT P6SM OVC080
     FM011000 VRB04KT P6SM SCT020 OVC040
      TEMPO 0114/0118 5SM -RA BR OVC010=

USA.gov is the U.S. government's official web portal to all federal, state and local government web resources and services.